sensor_id;sensor_type;location;lat;lon;timestamp;P1;durP1;ratioP1;P2;durP2;ratioP2
13303;SDS011;6720;51.958;4.540;2024-03-07T00:01:16;52.80;;;36.07;;
13303;SDS011;6720;51.958;4.540;2024-03-07T00:03:42;55.23;;;35.77;;
13303;SDS011;6720;51.958;4.540;2024-03-07T00:06:07;53.47;;;36.47;;
13303;SDS011;6720;51.958;4.540;2024-03-07T00:08:33;52.57;;;36.97;;
13303;SDS011;6720;51.958;4.540;2024-03-07T00:10:59;53.00;;;36.37;;
13303;SDS011;6720;51.958;4.540;2024-03-07T00:13:38;56.13;;;37.20;;
13303;SDS011;6720;51.958;4.540;2024-03-07T00:16:16;55.80;;;39.10;;
13303;SDS011;6720;51.958;4.540;2024-03-07T00:18:42;54.80;;;37.43;;
13303;SDS011;6720;51.958;4.540;2024-03-07T00:21:07;55.87;;;38.33;;
13303;SDS011;6720;51.958;4.540;2024-03-07T00:23:33;59.10;;;39.80;;
13303;SDS011;6720;51.958;4.540;2024-03-07T00:25:59;59.83;;;39.43;;
13303;SDS011;6720;51.958;4.540;2024-03-07T00:28:24;55.60;;;38.83;;
13303;SDS011;6720;51.958;4.540;2024-03-07T00:30:54;59.67;;;40.20;;
13303;SDS011;6720;51.958;4.540;2024-03-07T00:33:20;59.40;;;39.87;;
13303;SDS011;6720;51.958;4.540;2024-03-07T00:35:46;62.93;;;40.97;;
13303;SDS011;6720;51.958;4.540;2024-03-07T00:38:12;59.10;;;40.13;;
13303;SDS011;6720;51.958;4.540;2024-03-07T00:40:38;59.30;;;39.03;;
13303;SDS011;6720;51.958;4.540;2024-03-07T00:43:03;54.97;;;38.63;;
13303;SDS011;6720;51.958;4.540;2024-03-07T00:45:28;57.23;;;39.23;;
13303;SDS011;6720;51.958;4.540;2024-03-07T00:47:54;55.40;;;38.80;;
13303;SDS011;6720;51.958;4.540;2024-03-07T00:50:19;57.13;;;38.30;;
13303;SDS011;6720;51.958;4.540;2024-03-07T00:52:44;60.43;;;40.43;;
13303;SDS011;6720;51.958;4.540;2024-03-07T00:55:09;56.97;;;37.70;;
13303;SDS011;6720;51.958;4.540;2024-03-07T00:57:36;61.63;;;40.17;;
13303;SDS011;6720;51.958;4.540;2024-03-07T01:00:02;62.13;;;40.37;;
13303;SDS011;6720;51.958;4.540;2024-03-07T01:02:29;59.80;;;40.43;;
13303;SDS011;6720;51.958;4.540;2024-03-07T01:04:55;58.33;;;39.23;;
13303;SDS011;6720;51.958;4.540;2024-03-07T01:07:20;64.27;;;41.40;;
13303;SDS011;6720;51.958;4.540;2024-03-07T01:09:46;62.70;;;41.17;;
13303;SDS011;6720;51.958;4.540;2024-03-07T01:12:11;59.00;;;39.80;;
13303;SDS011;6720;51.958;4.540;2024-03-07T01:14:37;61.87;;;40.43;;
13303;SDS011;6720;51.958;4.540;2024-03-07T01:17:02;60.83;;;39.57;;
13303;SDS011;6720;51.958;4.540;2024-03-07T01:19:27;62.37;;;40.00;;
13303;SDS011;6720;51.958;4.540;2024-03-07T01:21:52;58.27;;;39.33;;
13303;SDS011;6720;51.958;4.540;2024-03-07T01:24:18;56.97;;;40.13;;
13303;SDS011;6720;51.958;4.540;2024-03-07T01:26:45;65.00;;;42.53;;
13303;SDS011;6720;51.958;4.540;2024-03-07T01:29:10;68.53;;;42.77;;
13303;SDS011;6720;51.958;4.540;2024-03-07T01:31:35;58.37;;;38.40;;
13303;SDS011;6720;51.958;4.540;2024-03-07T01:34:01;57.93;;;39.00;;
13303;SDS011;6720;51.958;4.540;2024-03-07T01:36:26;59.83;;;38.90;;
13303;SDS011;6720;51.958;4.540;2024-03-07T01:38:51;63.63;;;41.87;;
13303;SDS011;6720;51.958;4.540;2024-03-07T01:41:17;65.03;;;40.20;;
13303;SDS011;6720;51.958;4.540;2024-03-07T01:43:43;56.83;;;39.23;;
13303;SDS011;6720;51.958;4.540;2024-03-07T01:46:08;58.23;;;41.00;;
13303;SDS011;6720;51.958;4.540;2024-03-07T01:48:35;59.83;;;39.70;;
13303;SDS011;6720;51.958;4.540;2024-03-07T01:51:01;66.57;;;42.80;;
13303;SDS011;6720;51.958;4.540;2024-03-07T01:53:28;60.77;;;40.27;;
13303;SDS011;6720;51.958;4.540;2024-03-07T01:55:55;66.37;;;41.10;;
13303;SDS011;6720;51.958;4.540;2024-03-07T01:58:21;60.40;;;40.53;;
13303;SDS011;6720;51.958;4.540;2024-03-07T02:00:46;62.90;;;41.30;;
13303;SDS011;6720;51.958;4.540;2024-03-07T02:03:12;64.60;;;41.27;;
13303;SDS011;6720;51.958;4.540;2024-03-07T02:05:38;62.77;;;40.40;;
13303;SDS011;6720;51.958;4.540;2024-03-07T02:08:04;61.23;;;40.97;;
13303;SDS011;6720;51.958;4.540;2024-03-07T02:10:29;63.87;;;40.60;;
13303;SDS011;6720;51.958;4.540;2024-03-07T02:12:55;59.20;;;40.03;;
13303;SDS011;6720;51.958;4.540;2024-03-07T02:15:20;60.60;;;41.60;;
13303;SDS011;6720;51.958;4.540;2024-03-07T02:17:46;67.10;;;40.40;;
13303;SDS011;6720;51.958;4.540;2024-03-07T02:20:11;59.43;;;39.00;;
13303;SDS011;6720;51.958;4.540;2024-03-07T02:22:38;62.30;;;40.63;;
13303;SDS011;6720;51.958;4.540;2024-03-07T02:25:03;60.37;;;39.30;;
13303;SDS011;6720;51.958;4.540;2024-03-07T02:27:29;59.07;;;38.37;;
13303;SDS011;6720;51.958;4.540;2024-03-07T02:29:54;61.07;;;40.00;;
13303;SDS011;6720;51.958;4.540;2024-03-07T02:32:20;57.27;;;38.30;;
13303;SDS011;6720;51.958;4.540;2024-03-07T02:34:45;59.70;;;39.33;;
13303;SDS011;6720;51.958;4.540;2024-03-07T02:37:12;68.13;;;41.47;;
13303;SDS011;6720;51.958;4.540;2024-03-07T02:39:37;67.83;;;41.40;;
13303;SDS011;6720;51.958;4.540;2024-03-07T02:42:03;65.03;;;40.70;;
13303;SDS011;6720;51.958;4.540;2024-03-07T02:44:28;68.43;;;40.10;;
13303;SDS011;6720;51.958;4.540;2024-03-07T02:46:53;68.00;;;41.30;;
13303;SDS011;6720;51.958;4.540;2024-03-07T02:49:20;66.13;;;40.73;;
13303;SDS011;6720;51.958;4.540;2024-03-07T02:51:46;66.20;;;41.33;;
13303;SDS011;6720;51.958;4.540;2024-03-07T02:54:11;69.17;;;42.13;;
13303;SDS011;6720;51.958;4.540;2024-03-07T02:56:37;67.67;;;41.30;;
13303;SDS011;6720;51.958;4.540;2024-03-07T02:59:02;68.47;;;43.10;;
13303;SDS011;6720;51.958;4.540;2024-03-07T03:01:27;65.37;;;41.07;;
13303;SDS011;6720;51.958;4.540;2024-03-07T03:03:53;68.07;;;42.27;;
13303;SDS011;6720;51.958;4.540;2024-03-07T03:06:18;69.87;;;43.80;;
13303;SDS011;6720;51.958;4.540;2024-03-07T03:08:45;67.07;;;42.37;;
13303;SDS011;6720;51.958;4.540;2024-03-07T03:11:11;70.83;;;41.63;;
13303;SDS011;6720;51.958;4.540;2024-03-07T03:13:39;71.97;;;42.23;;
13303;SDS011;6720;51.958;4.540;2024-03-07T03:16:04;72.50;;;43.03;;
13303;SDS011;6720;51.958;4.540;2024-03-07T03:18:32;72.10;;;41.90;;
13303;SDS011;6720;51.958;4.540;2024-03-07T03:20:57;72.90;;;42.90;;
13303;SDS011;6720;51.958;4.540;2024-03-07T03:23:22;72.00;;;45.27;;
13303;SDS011;6720;51.958;4.540;2024-03-07T03:25:47;69.33;;;41.87;;
13303;SDS011;6720;51.958;4.540;2024-03-07T03:28:15;73.50;;;44.43;;
13303;SDS011;6720;51.958;4.540;2024-03-07T03:30:41;69.20;;;43.80;;
13303;SDS011;6720;51.958;4.540;2024-03-07T03:33:08;71.23;;;43.43;;
13303;SDS011;6720;51.958;4.540;2024-03-07T03:35:33;75.30;;;45.13;;
13303;SDS011;6720;51.958;4.540;2024-03-07T03:37:59;73.43;;;44.00;;
13303;SDS011;6720;51.958;4.540;2024-03-07T03:40:24;71.30;;;43.60;;
13303;SDS011;6720;51.958;4.540;2024-03-07T03:42:49;75.57;;;44.10;;
13303;SDS011;6720;51.958;4.540;2024-03-07T03:45:15;67.17;;;42.53;;
13303;SDS011;6720;51.958;4.540;2024-03-07T03:47:40;76.03;;;44.67;;
13303;SDS011;6720;51.958;4.540;2024-03-07T03:50:10;76.67;;;44.63;;
13303;SDS011;6720;51.958;4.540;2024-03-07T03:52:36;79.03;;;45.20;;
13303;SDS011;6720;51.958;4.540;2024-03-07T03:55:02;67.97;;;43.77;;
13303;SDS011;6720;51.958;4.540;2024-03-07T03:57:28;70.33;;;43.30;;
13303;SDS011;6720;51.958;4.540;2024-03-07T03:59:54;75.33;;;45.27;;
13303;SDS011;6720;51.958;4.540;2024-03-07T04:02:20;76.93;;;45.37;;
13303;SDS011;6720;51.958;4.540;2024-03-07T04:04:45;73.90;;;43.67;;
13303;SDS011;6720;51.958;4.540;2024-03-07T04:07:11;71.83;;;43.17;;
13303;SDS011;6720;51.958;4.540;2024-03-07T04:09:37;72.67;;;44.73;;
13303;SDS011;6720;51.958;4.540;2024-03-07T04:12:02;70.27;;;43.50;;
13303;SDS011;6720;51.958;4.540;2024-03-07T04:14:28;72.13;;;42.97;;
13303;SDS011;6720;51.958;4.540;2024-03-07T04:16:57;74.50;;;44.03;;
13303;SDS011;6720;51.958;4.540;2024-03-07T04:19:23;77.07;;;44.17;;
13303;SDS011;6720;51.958;4.540;2024-03-07T04:21:48;80.30;;;46.17;;
13303;SDS011;6720;51.958;4.540;2024-03-07T04:24:13;73.70;;;43.17;;
13303;SDS011;6720;51.958;4.540;2024-03-07T04:26:39;76.80;;;44.13;;
13303;SDS011;6720;51.958;4.540;2024-03-07T04:29:07;89.97;;;47.93;;
13303;SDS011;6720;51.958;4.540;2024-03-07T04:31:33;77.20;;;44.20;;
13303;SDS011;6720;51.958;4.540;2024-03-07T04:33:58;74.37;;;44.87;;
13303;SDS011;6720;51.958;4.540;2024-03-07T04:36:25;75.20;;;45.17;;
13303;SDS011;6720;51.958;4.540;2024-03-07T04:38:52;75.20;;;44.17;;
13303;SDS011;6720;51.958;4.540;2024-03-07T04:41:17;79.37;;;44.80;;
13303;SDS011;6720;51.958;4.540;2024-03-07T04:43:42;76.30;;;45.63;;
13303;SDS011;6720;51.958;4.540;2024-03-07T04:46:08;71.63;;;45.40;;
13303;SDS011;6720;51.958;4.540;2024-03-07T04:48:33;74.70;;;44.73;;
13303;SDS011;6720;51.958;4.540;2024-03-07T04:51:00;74.70;;;45.00;;
13303;SDS011;6720;51.958;4.540;2024-03-07T04:53:25;75.43;;;46.23;;
13303;SDS011;6720;51.958;4.540;2024-03-07T04:55:50;71.80;;;45.23;;
13303;SDS011;6720;51.958;4.540;2024-03-07T04:58:16;76.90;;;45.57;;
13303;SDS011;6720;51.958;4.540;2024-03-07T05:00:41;75.33;;;45.20;;
13303;SDS011;6720;51.958;4.540;2024-03-07T05:03:06;72.97;;;44.80;;
13303;SDS011;6720;51.958;4.540;2024-03-07T05:05:31;73.03;;;43.93;;
13303;SDS011;6720;51.958;4.540;2024-03-07T05:07:57;74.20;;;44.93;;
13303;SDS011;6720;51.958;4.540;2024-03-07T05:10:22;75.37;;;44.97;;
13303;SDS011;6720;51.958;4.540;2024-03-07T05:12:58;73.77;;;46.07;;
13303;SDS011;6720;51.958;4.540;2024-03-07T05:15:45;77.47;;;46.83;;
13303;SDS011;6720;51.958;4.540;2024-03-07T05:18:29;75.97;;;46.03;;
13303;SDS011;6720;51.958;4.540;2024-03-07T05:21:08;72.70;;;43.87;;
13303;SDS011;6720;51.958;4.540;2024-03-07T05:23:52;71.13;;;45.00;;
13303;SDS011;6720;51.958;4.540;2024-03-07T05:26:18;74.77;;;44.37;;
13303;SDS011;6720;51.958;4.540;2024-03-07T05:28:43;70.43;;;44.97;;
13303;SDS011;6720;51.958;4.540;2024-03-07T05:31:08;71.13;;;46.13;;
13303;SDS011;6720;51.958;4.540;2024-03-07T05:33:37;68.13;;;45.10;;
13303;SDS011;6720;51.958;4.540;2024-03-07T05:36:03;77.17;;;46.10;;
13303;SDS011;6720;51.958;4.540;2024-03-07T05:38:39;76.53;;;45.03;;
13303;SDS011;6720;51.958;4.540;2024-03-07T05:41:04;76.30;;;44.97;;
13303;SDS011;6720;51.958;4.540;2024-03-07T05:43:30;72.93;;;45.43;;
13303;SDS011;6720;51.958;4.540;2024-03-07T05:45:55;72.03;;;45.27;;
13303;SDS011;6720;51.958;4.540;2024-03-07T05:48:21;72.73;;;45.47;;
13303;SDS011;6720;51.958;4.540;2024-03-07T05:50:46;74.37;;;44.00;;
13303;SDS011;6720;51.958;4.540;2024-03-07T05:53:11;72.10;;;45.30;;
13303;SDS011;6720;51.958;4.540;2024-03-07T05:55:36;66.97;;;43.37;;
13303;SDS011;6720;51.958;4.540;2024-03-07T05:58:02;70.33;;;44.37;;
13303;SDS011;6720;51.958;4.540;2024-03-07T06:00:27;68.93;;;42.70;;
13303;SDS011;6720;51.958;4.540;2024-03-07T06:02:53;72.43;;;45.03;;
13303;SDS011;6720;51.958;4.540;2024-03-07T06:05:18;72.53;;;46.53;;
13303;SDS011;6720;51.958;4.540;2024-03-07T06:07:44;70.17;;;45.93;;
13303;SDS011;6720;51.958;4.540;2024-03-07T06:10:14;67.37;;;42.73;;
13303;SDS011;6720;51.958;4.540;2024-03-07T06:12:41;65.90;;;43.43;;
13303;SDS011;6720;51.958;4.540;2024-03-07T06:15:10;73.77;;;44.97;;
13303;SDS011;6720;51.958;4.540;2024-03-07T06:17:35;69.57;;;44.07;;
13303;SDS011;6720;51.958;4.540;2024-03-07T06:20:01;68.07;;;44.70;;
13303;SDS011;6720;51.958;4.540;2024-03-07T06:22:26;68.67;;;43.97;;
13303;SDS011;6720;51.958;4.540;2024-03-07T06:24:51;72.87;;;44.20;;
13303;SDS011;6720;51.958;4.540;2024-03-07T06:27:16;69.53;;;42.80;;
13303;SDS011;6720;51.958;4.540;2024-03-07T06:29:51;69.47;;;42.87;;
13303;SDS011;6720;51.958;4.540;2024-03-07T06:32:17;71.97;;;45.67;;
13303;SDS011;6720;51.958;4.540;2024-03-07T06:34:43;71.53;;;43.90;;
13303;SDS011;6720;51.958;4.540;2024-03-07T06:37:08;70.53;;;43.90;;
13303;SDS011;6720;51.958;4.540;2024-03-07T06:39:33;68.10;;;42.53;;
13303;SDS011;6720;51.958;4.540;2024-03-07T06:41:58;64.63;;;42.80;;
13303;SDS011;6720;51.958;4.540;2024-03-07T06:44:24;66.10;;;42.83;;
13303;SDS011;6720;51.958;4.540;2024-03-07T06:46:50;64.57;;;42.57;;
13303;SDS011;6720;51.958;4.540;2024-03-07T06:49:16;67.47;;;43.67;;
13303;SDS011;6720;51.958;4.540;2024-03-07T06:51:41;71.10;;;43.47;;
13303;SDS011;6720;51.958;4.540;2024-03-07T06:54:06;66.17;;;43.00;;
13303;SDS011;6720;51.958;4.540;2024-03-07T06:56:32;69.63;;;43.70;;
13303;SDS011;6720;51.958;4.540;2024-03-07T06:58:57;65.40;;;43.00;;
13303;SDS011;6720;51.958;4.540;2024-03-07T07:01:23;64.00;;;43.87;;
13303;SDS011;6720;51.958;4.540;2024-03-07T07:03:49;63.73;;;43.33;;
13303;SDS011;6720;51.958;4.540;2024-03-07T07:06:14;62.70;;;42.40;;
13303;SDS011;6720;51.958;4.540;2024-03-07T07:08:39;63.73;;;43.40;;
13303;SDS011;6720;51.958;4.540;2024-03-07T07:11:05;64.20;;;43.10;;
13303;SDS011;6720;51.958;4.540;2024-03-07T07:13:31;63.67;;;42.53;;
13303;SDS011;6720;51.958;4.540;2024-03-07T07:15:57;66.00;;;43.97;;
13303;SDS011;6720;51.958;4.540;2024-03-07T07:18:22;59.13;;;41.87;;
13303;SDS011;6720;51.958;4.540;2024-03-07T07:20:49;61.00;;;40.80;;
13303;SDS011;6720;51.958;4.540;2024-03-07T07:23:14;62.87;;;43.07;;
13303;SDS011;6720;51.958;4.540;2024-03-07T07:25:39;59.07;;;40.33;;
13303;SDS011;6720;51.958;4.540;2024-03-07T07:28:05;57.80;;;39.93;;
13303;SDS011;6720;51.958;4.540;2024-03-07T07:30:33;62.77;;;42.67;;
13303;SDS011;6720;51.958;4.540;2024-03-07T07:32:58;59.07;;;40.70;;
13303;SDS011;6720;51.958;4.540;2024-03-07T07:35:24;55.50;;;39.20;;
13303;SDS011;6720;51.958;4.540;2024-03-07T07:37:52;58.00;;;40.37;;
13303;SDS011;6720;51.958;4.540;2024-03-07T07:40:22;57.03;;;39.43;;
13303;SDS011;6720;51.958;4.540;2024-03-07T07:42:49;55.60;;;40.63;;
13303;SDS011;6720;51.958;4.540;2024-03-07T07:45:15;55.43;;;38.67;;
13303;SDS011;6720;51.958;4.540;2024-03-07T07:47:41;50.77;;;37.93;;
13303;SDS011;6720;51.958;4.540;2024-03-07T07:50:09;56.23;;;39.30;;
13303;SDS011;6720;51.958;4.540;2024-03-07T07:52:42;56.37;;;38.73;;
13303;SDS011;6720;51.958;4.540;2024-03-07T07:55:07;56.10;;;39.03;;
13303;SDS011;6720;51.958;4.540;2024-03-07T07:57:39;57.60;;;39.60;;
13303;SDS011;6720;51.958;4.540;2024-03-07T08:00:05;56.33;;;39.33;;
13303;SDS011;6720;51.958;4.540;2024-03-07T08:02:33;56.50;;;38.83;;
13303;SDS011;6720;51.958;4.540;2024-03-07T08:04:59;53.43;;;39.57;;
13303;SDS011;6720;51.958;4.540;2024-03-07T08:07:25;59.33;;;40.20;;
13303;SDS011;6720;51.958;4.540;2024-03-07T08:09:51;54.07;;;39.53;;
13303;SDS011;6720;51.958;4.540;2024-03-07T08:12:16;57.60;;;39.37;;
13303;SDS011;6720;51.958;4.540;2024-03-07T08:14:42;54.60;;;39.83;;
13303;SDS011;6720;51.958;4.540;2024-03-07T08:17:09;51.53;;;37.57;;
13303;SDS011;6720;51.958;4.540;2024-03-07T08:19:35;49.70;;;38.43;;
13303;SDS011;6720;51.958;4.540;2024-03-07T08:22:00;52.60;;;38.03;;
13303;SDS011;6720;51.958;4.540;2024-03-07T08:24:25;51.47;;;36.37;;
13303;SDS011;6720;51.958;4.540;2024-03-07T08:26:51;53.50;;;37.87;;
13303;SDS011;6720;51.958;4.540;2024-03-07T08:29:16;49.37;;;37.63;;
13303;SDS011;6720;51.958;4.540;2024-03-07T08:31:44;49.20;;;36.93;;
13303;SDS011;6720;51.958;4.540;2024-03-07T08:34:09;49.63;;;36.43;;
13303;SDS011;6720;51.958;4.540;2024-03-07T08:36:35;44.30;;;32.33;;
13303;SDS011;6720;51.958;4.540;2024-03-07T08:39:01;48.33;;;35.60;;
13303;SDS011;6720;51.958;4.540;2024-03-07T08:41:28;49.63;;;35.33;;
13303;SDS011;6720;51.958;4.540;2024-03-07T08:43:56;50.70;;;35.20;;
13303;SDS011;6720;51.958;4.540;2024-03-07T08:46:22;46.80;;;34.53;;
13303;SDS011;6720;51.958;4.540;2024-03-07T08:48:48;45.00;;;34.80;;
13303;SDS011;6720;51.958;4.540;2024-03-07T08:51:14;44.30;;;33.77;;
13303;SDS011;6720;51.958;4.540;2024-03-07T08:53:40;45.00;;;34.33;;
13303;SDS011;6720;51.958;4.540;2024-03-07T08:56:08;46.03;;;33.73;;
13303;SDS011;6720;51.958;4.540;2024-03-07T08:58:34;43.13;;;33.93;;
13303;SDS011;6720;51.958;4.540;2024-03-07T09:00:59;42.07;;;32.70;;
13303;SDS011;6720;51.958;4.540;2024-03-07T09:03:25;41.47;;;31.47;;
13303;SDS011;6720;51.958;4.540;2024-03-07T09:05:51;43.33;;;32.37;;
13303;SDS011;6720;51.958;4.540;2024-03-07T09:08:17;41.50;;;33.07;;
13303;SDS011;6720;51.958;4.540;2024-03-07T09:10:42;41.70;;;31.57;;
13303;SDS011;6720;51.958;4.540;2024-03-07T09:13:07;41.67;;;32.10;;
13303;SDS011;6720;51.958;4.540;2024-03-07T09:15:33;39.73;;;30.60;;
13303;SDS011;6720;51.958;4.540;2024-03-07T09:17:58;39.97;;;32.03;;
13303;SDS011;6720;51.958;4.540;2024-03-07T09:20:24;38.47;;;28.87;;
13303;SDS011;6720;51.958;4.540;2024-03-07T09:22:49;36.70;;;28.73;;
13303;SDS011;6720;51.958;4.540;2024-03-07T09:25:19;38.67;;;28.07;;
13303;SDS011;6720;51.958;4.540;2024-03-07T09:27:44;33.60;;;26.80;;
13303;SDS011;6720;51.958;4.540;2024-03-07T09:30:10;36.00;;;27.37;;
13303;SDS011;6720;51.958;4.540;2024-03-07T09:32:42;33.63;;;27.63;;
13303;SDS011;6720;51.958;4.540;2024-03-07T09:35:21;30.27;;;26.00;;
13303;SDS011;6720;51.958;4.540;2024-03-07T09:37:52;33.73;;;26.43;;
13303;SDS011;6720;51.958;4.540;2024-03-07T09:40:18;32.63;;;26.43;;
13303;SDS011;6720;51.958;4.540;2024-03-07T09:42:48;29.50;;;25.03;;
13303;SDS011;6720;51.958;4.540;2024-03-07T09:45:16;32.17;;;25.33;;
13303;SDS011;6720;51.958;4.540;2024-03-07T09:47:42;30.23;;;24.20;;
13303;SDS011;6720;51.958;4.540;2024-03-07T09:50:09;30.17;;;24.77;;
13303;SDS011;6720;51.958;4.540;2024-03-07T09:52:34;30.03;;;25.40;;
13303;SDS011;6720;51.958;4.540;2024-03-07T09:55:00;27.30;;;24.03;;
13303;SDS011;6720;51.958;4.540;2024-03-07T09:57:26;29.30;;;25.23;;
13303;SDS011;6720;51.958;4.540;2024-03-07T09:59:52;29.03;;;23.10;;
13303;SDS011;6720;51.958;4.540;2024-03-07T10:02:19;29.87;;;24.57;;
13303;SDS011;6720;51.958;4.540;2024-03-07T10:04:49;27.77;;;24.40;;
13303;SDS011;6720;51.958;4.540;2024-03-07T10:07:16;27.77;;;24.77;;
13303;SDS011;6720;51.958;4.540;2024-03-07T10:09:42;24.13;;;19.70;;
13303;SDS011;6720;51.958;4.540;2024-03-07T10:12:07;22.40;;;19.77;;
13303;SDS011;6720;51.958;4.540;2024-03-07T10:14:50;22.33;;;20.07;;
13303;SDS011;6720;51.958;4.540;2024-03-07T10:17:16;21.73;;;19.27;;
13303;SDS011;6720;51.958;4.540;2024-03-07T10:19:41;24.70;;;21.10;;
13303;SDS011;6720;51.958;4.540;2024-03-07T10:22:07;23.63;;;20.10;;
13303;SDS011;6720;51.958;4.540;2024-03-07T10:24:32;20.67;;;18.47;;
13303;SDS011;6720;51.958;4.540;2024-03-07T10:26:58;20.23;;;18.13;;
13303;SDS011;6720;51.958;4.540;2024-03-07T10:29:25;21.20;;;18.90;;
13303;SDS011;6720;51.958;4.540;2024-03-07T10:31:50;22.67;;;20.33;;
13303;SDS011;6720;51.958;4.540;2024-03-07T10:34:15;20.93;;;18.67;;
13303;SDS011;6720;51.958;4.540;2024-03-07T10:36:42;24.10;;;21.17;;
13303;SDS011;6720;51.958;4.540;2024-03-07T10:39:08;25.87;;;21.17;;
13303;SDS011;6720;51.958;4.540;2024-03-07T10:41:46;21.40;;;19.10;;
13303;SDS011;6720;51.958;4.540;2024-03-07T10:44:18;23.73;;;20.57;;
13303;SDS011;6720;51.958;4.540;2024-03-07T10:46:46;23.23;;;19.93;;
13303;SDS011;6720;51.958;4.540;2024-03-07T10:49:18;21.97;;;19.20;;
13303;SDS011;6720;51.958;4.540;2024-03-07T10:51:46;22.17;;;19.93;;
13303;SDS011;6720;51.958;4.540;2024-03-07T10:59:18;22.90;;;20.50;;
13303;SDS011;6720;51.958;4.540;2024-03-07T11:01:47;24.33;;;21.03;;
13303;SDS011;6720;51.958;4.540;2024-03-07T11:04:17;22.07;;;19.77;;
13303;SDS011;6720;51.958;4.540;2024-03-07T11:06:43;21.37;;;19.27;;
13303;SDS011;6720;51.958;4.540;2024-03-07T11:09:10;23.77;;;21.33;;
13303;SDS011;6720;51.958;4.540;2024-03-07T11:11:38;31.17;;;26.03;;
13303;SDS011;6720;51.958;4.540;2024-03-07T11:14:09;22.50;;;20.27;;
13303;SDS011;6720;51.958;4.540;2024-03-07T11:16:37;25.10;;;22.50;;
13303;SDS011;6720;51.958;4.540;2024-03-07T11:21:47;23.07;;;20.67;;
13303;SDS011;6720;51.958;4.540;2024-03-07T11:24:23;24.20;;;21.50;;
13303;SDS011;6720;51.958;4.540;2024-03-07T11:26:50;26.27;;;21.13;;
13303;SDS011;6720;51.958;4.540;2024-03-07T11:31:59;23.90;;;19.90;;
13303;SDS011;6720;51.958;4.540;2024-03-07T11:34:25;22.27;;;19.97;;
13303;SDS011;6720;51.958;4.540;2024-03-07T11:36:55;27.03;;;22.80;;
13303;SDS011;6720;51.958;4.540;2024-03-07T11:42:18;22.33;;;20.07;;
13303;SDS011;6720;51.958;4.540;2024-03-07T11:44:44;23.67;;;21.03;;
13303;SDS011;6720;51.958;4.540;2024-03-07T11:47:11;22.97;;;20.40;;
13303;SDS011;6720;51.958;4.540;2024-03-07T11:49:37;22.77;;;20.47;;
13303;SDS011;6720;51.958;4.540;2024-03-07T11:52:03;24.00;;;21.47;;
13303;SDS011;6720;51.958;4.540;2024-03-07T11:54:40;19.63;;;17.53;;
13303;SDS011;6720;51.958;4.540;2024-03-07T11:57:11;20.50;;;18.37;;
13303;SDS011;6720;51.958;4.540;2024-03-07T11:59:41;23.37;;;20.10;;
13303;SDS011;6720;51.958;4.540;2024-03-07T12:02:10;26.20;;;20.47;;
13303;SDS011;6720;51.958;4.540;2024-03-07T12:04:36;25.77;;;20.40;;
13303;SDS011;6720;51.958;4.540;2024-03-07T12:07:01;21.63;;;18.17;;
13303;SDS011;6720;51.958;4.540;2024-03-07T12:09:26;19.50;;;17.53;;
13303;SDS011;6720;51.958;4.540;2024-03-07T12:11:51;19.17;;;17.27;;
13303;SDS011;6720;51.958;4.540;2024-03-07T12:14:21;19.23;;;17.17;;
13303;SDS011;6720;51.958;4.540;2024-03-07T12:16:46;20.27;;;18.17;;
13303;SDS011;6720;51.958;4.540;2024-03-07T12:19:12;19.30;;;17.13;;
13303;SDS011;6720;51.958;4.540;2024-03-07T12:21:37;19.80;;;17.80;;
13303;SDS011;6720;51.958;4.540;2024-03-07T12:24:13;22.10;;;19.70;;
13303;SDS011;6720;51.958;4.540;2024-03-07T12:26:38;19.23;;;17.23;;
13303;SDS011;6720;51.958;4.540;2024-03-07T12:29:07;19.93;;;17.17;;
13303;SDS011;6720;51.958;4.540;2024-03-07T12:31:36;22.93;;;19.33;;
13303;SDS011;6720;51.958;4.540;2024-03-07T12:34:02;21.47;;;19.13;;
13303;SDS011;6720;51.958;4.540;2024-03-07T12:36:29;21.77;;;18.57;;
13303;SDS011;6720;51.958;4.540;2024-03-07T12:38:59;25.00;;;21.63;;
13303;SDS011;6720;51.958;4.540;2024-03-07T12:41:34;22.37;;;20.07;;
13303;SDS011;6720;51.958;4.540;2024-03-07T12:43:59;22.47;;;20.07;;
13303;SDS011;6720;51.958;4.540;2024-03-07T12:46:24;23.03;;;20.17;;
13303;SDS011;6720;51.958;4.540;2024-03-07T12:48:50;22.07;;;19.77;;
13303;SDS011;6720;51.958;4.540;2024-03-07T12:51:15;23.13;;;20.73;;
13303;SDS011;6720;51.958;4.540;2024-03-07T12:53:44;22.67;;;20.33;;
13303;SDS011;6720;51.958;4.540;2024-03-07T12:56:09;37.23;;;30.07;;
13303;SDS011;6720;51.958;4.540;2024-03-07T12:58:34;44.80;;;33.70;;
13303;SDS011;6720;51.958;4.540;2024-03-07T13:00:59;27.00;;;24.10;;
13303;SDS011;6720;51.958;4.540;2024-03-07T13:03:25;24.33;;;21.83;;
13303;SDS011;6720;51.958;4.540;2024-03-07T13:05:59;24.60;;;22.00;;
13303;SDS011;6720;51.958;4.540;2024-03-07T13:08:29;23.87;;;21.47;;
13303;SDS011;6720;51.958;4.540;2024-03-07T13:10:55;25.37;;;22.73;;
13303;SDS011;6720;51.958;4.540;2024-03-07T13:13:20;24.67;;;22.00;;
13303;SDS011;6720;51.958;4.540;2024-03-07T13:15:46;25.97;;;22.30;;
13303;SDS011;6720;51.958;4.540;2024-03-07T13:18:12;23.30;;;20.90;;
13303;SDS011;6720;51.958;4.540;2024-03-07T13:20:38;21.93;;;19.63;;
13303;SDS011;6720;51.958;4.540;2024-03-07T13:23:04;24.07;;;21.57;;
13303;SDS011;6720;51.958;4.540;2024-03-07T13:25:30;25.40;;;22.50;;
13303;SDS011;6720;51.958;4.540;2024-03-07T13:28:31;23.23;;;20.90;;
13303;SDS011;6720;51.958;4.540;2024-03-07T13:30:51;24.27;;;21.67;;
13303;SDS011;6720;51.958;4.540;2024-03-07T13:33:19;23.33;;;21.00;;
13303;SDS011;6720;51.958;4.540;2024-03-07T13:35:44;23.23;;;20.73;;
13303;SDS011;6720;51.958;4.540;2024-03-07T13:38:10;24.33;;;21.80;;
13303;SDS011;6720;51.958;4.540;2024-03-07T13:40:35;24.10;;;21.50;;
13303;SDS011;6720;51.958;4.540;2024-03-07T13:43:04;24.63;;;22.13;;
13303;SDS011;6720;51.958;4.540;2024-03-07T13:45:30;24.37;;;21.87;;
13303;SDS011;6720;51.958;4.540;2024-03-07T13:48:07;22.20;;;19.97;;
13303;SDS011;6720;51.958;4.540;2024-03-07T13:50:33;24.47;;;21.87;;
13303;SDS011;6720;51.958;4.540;2024-03-07T13:52:59;24.60;;;22.10;;
13303;SDS011;6720;51.958;4.540;2024-03-07T13:55:54;25.57;;;22.37;;
13303;SDS011;6720;51.958;4.540;2024-03-07T14:00:56;33.53;;;26.73;;
13303;SDS011;6720;51.958;4.540;2024-03-07T14:06:30;41.43;;;31.10;;
13303;SDS011;6720;51.958;4.540;2024-03-07T14:17:21;24.63;;;21.37;;
13303;SDS011;6720;51.958;4.540;2024-03-07T14:25:38;20.60;;;18.50;;
13303;SDS011;6720;51.958;4.540;2024-03-07T14:28:14;22.40;;;19.23;;
13303;SDS011;6720;51.958;4.540;2024-03-07T14:33:08;22.47;;;18.03;;
13303;SDS011;6720;51.958;4.540;2024-03-07T14:38:05;20.63;;;17.97;;
13303;SDS011;6720;51.958;4.540;2024-03-07T14:40:32;20.87;;;18.10;;
13303;SDS011;6720;51.958;4.540;2024-03-07T14:42:58;21.07;;;18.90;;
13303;SDS011;6720;51.958;4.540;2024-03-07T14:45:29;20.40;;;18.30;;
13303;SDS011;6720;51.958;4.540;2024-03-07T14:47:56;22.27;;;18.93;;
13303;SDS011;6720;51.958;4.540;2024-03-07T14:50:22;20.30;;;18.17;;
13303;SDS011;6720;51.958;4.540;2024-03-07T14:52:49;20.20;;;17.47;;
13303;SDS011;6720;51.958;4.540;2024-03-07T14:55:15;21.00;;;17.63;;
13303;SDS011;6720;51.958;4.540;2024-03-07T14:57:43;19.13;;;17.13;;
13303;SDS011;6720;51.958;4.540;2024-03-07T15:00:10;19.17;;;16.70;;
13303;SDS011;6720;51.958;4.540;2024-03-07T15:02:48;20.00;;;16.33;;
13303;SDS011;6720;51.958;4.540;2024-03-07T15:05:17;20.37;;;17.40;;
13303;SDS011;6720;51.958;4.540;2024-03-07T15:07:44;19.77;;;17.63;;
13303;SDS011;6720;51.958;4.540;2024-03-07T15:10:15;19.37;;;17.37;;